Time;durP1;ratioP1;P1;durP2;ratioP2;P2;SDS_P1;SDS_P2;PMS_P1;PMS_P2;Temp;Humidity;BMP_temperature;BMP_pressure;BME280_temperature;BME280_humidity;BME280_pressure;Samples;Min_cycle;Max_cycle;Signal;HPM_P1;HPM_P2
2023/01/30 00:00:34;;;;;;;25.30;13.38;;;;;;;-2.41;63.56;98607.22;5069089;28;20040;-72
2023/01/30 00:02:59;;;;;;;27.70;14.35;;;;;;;-2.46;63.48;98605.16;5070049;28;20035;-72
2023/01/30 00:05:24;;;;;;;22.85;12.63;;;;;;;-2.48;63.58;98601.84;5070291;28;20119;-72
2023/01/30 00:07:50;;;;;;;24.40;13.50;;;;;;;-2.50;63.57;98593.16;5070686;28;20024;-72
2023/01/30 00:10:16;;;;;;;25.20;12.77;;;;;;;-2.51;63.84;98580.78;5069865;28;20084;-72
2023/01/30 00:12:41;;;;;;;28.23;13.88;;;;;;;-2.53;63.51;98580.16;5071404;28;20029;-69
2023/01/30 00:15:07;;;;;;;25.58;13.13;;;;;;;-2.58;63.75;98564.69;5057033;28;20051;-70
2023/01/30 00:17:33;;;;;;;23.15;12.30;;;;;;;-2.59;63.91;98556.81;5075747;28;20028;-70
2023/01/30 00:19:58;;;;;;;26.80;13.98;;;;;;;-2.66;63.65;98543.41;5076585;28;20032;-70
2023/01/30 00:22:23;;;;;;;27.77;13.70;;;;;;;-2.74;63.86;98540.94;5075329;28;20056;-70
2023/01/30 00:24:49;;;;;;;27.20;12.90;;;;;;;-2.83;63.70;98537.63;5075080;28;20059;-70
2023/01/30 00:27:14;;;;;;;25.50;12.95;;;;;;;-2.91;64.14;98545.91;5075698;28;20056;-70
2023/01/30 00:29:40;;;;;;;26.02;13.70;;;;;;;-2.97;63.99;98544.03;5075032;28;20430;-71
2023/01/30 00:32:05;;;;;;;26.50;12.90;;;;;;;-3.03;63.96;98543.00;5075720;28;20028;-70
2023/01/30 00:34:30;;;;;;;24.08;12.40;;;;;;;-3.06;64.20;98538.91;5074407;28;20024;-71
2023/01/30 00:36:56;;;;;;;23.95;12.48;;;;;;;-3.10;64.52;98528.75;5075857;28;20048;-70
2023/01/30 00:39:21;;;;;;;26.77;13.02;;;;;;;-3.16;64.94;98528.53;5075513;28;20039;-70
2023/01/30 00:47:15;;;;;;;25.52;13.60;;;;;;;-3.34;65.26;98514.94;5075337;28;20086;-70
2023/01/30 00:49:41;;;;;;;31.30;13.30;;;;;;;-3.39;65.08;98514.72;5075432;28;20037;-70
2023/01/30 00:52:06;;;;;;;35.03;14.07;;;;;;;-3.42;65.51;98509.75;5076608;28;20371;-71
2023/01/30 00:54:32;;;;;;;26.42;12.20;;;;;;;-3.44;65.56;98507.25;5075667;28;20032;-70
2023/01/30 00:56:57;;;;;;;22.08;11.63;;;;;;;-3.45;65.92;98492.19;5076524;28;20048;-70
2023/01/30 00:59:23;;;;;;;24.52;12.43;;;;;;;-3.44;65.89;98483.13;5076652;28;20791;-70
2023/01/30 01:01:48;;;;;;;21.10;11.75;;;;;;;-3.42;66.14;98475.69;5076612;28;20052;-70
2023/01/30 01:04:13;;;;;;;24.58;11.80;;;;;;;-3.45;66.83;98473.44;5075616;28;20066;-70
2023/01/30 01:06:39;;;;;;;22.25;12.30;;;;;;;-3.49;66.37;98456.94;5076325;28;20088;-70
2023/01/30 01:09:06;;;;;;;26.48;12.27;;;;;;;-3.46;66.48;98466.41;5076098;28;20037;-70
2023/01/30 01:11:31;;;;;;;20.45;10.57;;;;;;;-3.44;67.38;98461.66;5076336;28;20050;-70
2023/01/30 01:14:01;;;;;;;22.05;12.35;;;;;;;-3.47;66.89;98451.38;5075631;28;20028;-70
2023/01/30 01:16:27;;;;;;;24.52;12.05;;;;;;;-3.47;66.58;98449.50;5076164;28;20028;-70
2023/01/30 01:18:53;;;;;;;23.67;12.23;;;;;;;-3.44;67.00;98441.06;5076674;28;20501;-70
2023/01/30 01:21:20;;;;;;;30.25;14.40;;;;;;;-3.44;67.18;98435.69;5076474;28;20529;-70
2023/01/30 01:23:57;;;;;;;24.33;12.68;;;;;;;-3.44;66.77;98433.00;5075951;28;20111;-70
2023/01/30 01:26:23;;;;;;;24.90;12.35;;;;;;;-3.42;67.41;98423.94;5072715;28;20032;-70
2023/01/30 01:28:48;;;;;;;21.92;11.23;;;;;;;-3.44;67.58;98427.66;5073213;28;20490;-70
2023/01/30 01:31:15;;;;;;;23.45;11.77;;;;;;;-3.43;67.29;98417.75;5072551;28;20037;-71
2023/01/30 01:33:41;;;;;;;29.65;13.40;;;;;;;-3.41;67.71;98422.91;5072368;28;20396;-70
2023/01/30 01:36:07;;;;;;;31.80;14.13;;;;;;;-3.41;67.36;98407.63;5073009;28;20036;-70
2023/01/30 01:38:33;;;;;;;40.13;15.93;;;;;;;-3.39;67.41;98397.53;5073258;28;20029;-70
2023/01/30 01:41:01;;;;;;;27.45;12.05;;;;;;;-3.37;67.64;98384.72;5073194;28;20024;-70
2023/01/30 01:43:30;;;;;;;23.63;11.60;;;;;;;-3.35;67.69;98371.94;5055457;28;20033;-70
2023/01/30 01:46:16;;;;;;;26.23;12.70;;;;;;;-3.32;67.97;98363.47;5072398;28;20039;-70
2023/01/30 01:48:53;;;;;;;22.35;11.23;;;;;;;-3.31;67.88;98361.63;5071648;28;20028;-70
2023/01/30 01:51:25;;;;;;;30.45;12.02;;;;;;;-3.33;67.82;98347.63;5073063;28;20111;-70
2023/01/30 01:54:02;;;;;;;30.45;13.90;;;;;;;-3.32;68.76;98331.28;5072698;28;20470;-71
2023/01/30 01:56:29;;;;;;;31.40;14.15;;;;;;;-3.35;68.32;98329.03;5072308;28;20032;-70
2023/01/30 01:59:00;;;;;;;25.33;12.25;;;;;;;-3.35;68.55;98336.25;5072715;28;20028;-71
2023/01/30 02:01:27;;;;;;;26.33;13.05;;;;;;;-3.39;67.79;98329.66;5072588;28;20039;-70
2023/01/30 02:03:58;;;;;;;24.23;11.73;;;;;;;-3.37;68.65;98330.28;5054574;28;20032;-70
2023/01/30 02:06:24;;;;;;;27.95;12.48;;;;;;;-3.37;68.65;98328.41;5054207;28;20481;-70
2023/01/30 02:08:56;;;;;;;23.85;11.63;;;;;;;-3.38;68.78;98324.09;5072547;28;20032;-71
2023/01/30 02:11:36;;;;;;;25.48;11.90;;;;;;;-3.37;68.53;98324.94;5072696;28;20031;-70
2023/01/30 02:14:01;;;;;;;;;;;;;;;-3.38;68.87;98318.72;5072681;28;20020;-70
2023/01/30 02:16:27;;;;;;;79.95;21.77;;;;;;;-3.37;68.78;98331.09;5071792;28;20370;-70
2023/01/30 02:18:53;;;;;;;29.58;12.30;;;;;;;-3.41;68.83;98324.50;5071966;28;20028;-70
2023/01/30 02:21:49;;;;;;;33.72;11.50;;;;;;;-3.41;68.83;98321.00;5072153;28;20029;-71
2023/01/30 02:25:04;;;;;;;35.97;12.82;;;;;;;-3.40;68.97;98312.75;5071982;28;20390;-70
2023/01/30 02:27:48;;;;;;;36.80;14.15;;;;;;;-3.39;69.01;98294.81;5071758;28;20455;-70
2023/01/30 02:30:40;;;;;;;52.63;18.45;;;;;;;-3.39;69.28;98290.25;5071878;28;20032;-70
2023/01/30 02:33:08;;;;;;;34.97;11.93;;;;;;;-3.37;69.00;98300.78;5071280;28;20106;-70
2023/01/30 02:35:45;;;;;;;26.17;10.95;;;;;;;-3.37;69.09;98298.09;5070901;28;20025;-70
2023/01/30 02:38:32;;;;;;;22.98;9.95;;;;;;;-3.33;69.11;98302.03;5072011;28;20020;-71
2023/01/30 02:41:22;;;;;;;21.63;10.00;;;;;;;-3.32;69.24;98285.69;5072167;28;20035;-70
2023/01/30 02:44:00;;;;;;;;;;;;;;;-3.27;69.23;98282.41;5071905;28;20074;-70
2023/01/30 02:46:44;;;;;;;22.80;10.05;;;;;;;-3.25;69.20;98268.78;5071711;28;20270;-70
2023/01/30 02:49:30;;;;;;;19.50;10.05;;;;;;;-3.25;69.01;98272.25;5053426;28;20055;-70
2023/01/30 02:51:59;;;;;;;16.90;8.45;;;;;;;-3.20;68.83;98277.00;5056336;28;20111;-70
2023/01/30 02:54:24;;;;;;;19.27;9.27;;;;;;;-3.19;69.02;98271.41;5071122;28;20150;-70
2023/01/30 02:56:53;;;;;;;16.73;8.65;;;;;;;-3.16;69.21;98273.69;5071024;28;20055;-71
2023/01/30 02:59:24;;;;;;;16.17;8.52;;;;;;;-3.12;69.18;98284.00;5071434;28;20056;-71
2023/01/30 03:02:08;;;;;;;17.38;8.65;;;;;;;-3.09;69.22;98276.38;5071570;28;20522;-71
2023/01/30 03:04:44;;;;;;;18.42;9.30;;;;;;;-3.07;69.64;98276.97;5070885;28;20051;-70
2023/01/30 03:07:27;;;;;;;18.10;9.27;;;;;;;-3.06;69.14;98265.22;5070794;28;20028;-71
2023/01/30 03:10:13;;;;;;;16.90;9.05;;;;;;;-3.06;69.26;98256.31;5070985;28;20076;-71
2023/01/30 03:13:12;;;;;;;19.95;10.07;;;;;;;-3.07;69.51;98242.09;5071435;28;20458;-71
2023/01/30 03:15:43;;;;;;;18.33;10.02;;;;;;;-3.06;69.50;98249.13;5070731;28;20105;-70
2023/01/30 03:18:09;;;;;;;18.90;9.18;;;;;;;-3.09;68.85;98249.53;5071289;28;20436;-71
2023/01/30 03:20:40;;;;;;;16.10;8.05;;;;;;;-3.07;69.11;98249.31;5071271;28;20112;-71
2023/01/30 03:23:06;;;;;;;15.40;8.07;;;;;;;-3.08;68.93;98248.50;5070746;28;20030;-71
2023/01/30 03:25:33;;;;;;;16.20;8.73;;;;;;;-3.05;69.38;98241.88;5070903;28;20056;-71
2023/01/30 03:28:00;;;;;;;15.85;8.65;;;;;;;-3.02;69.20;98234.22;5070932;28;20024;-70
2023/01/30 03:30:26;;;;;;;16.17;8.40;;;;;;;-2.98;69.19;98237.31;5070874;28;20105;-70
2023/01/30 03:32:51;;;;;;;17.85;9.07;;;;;;;-2.96;68.82;98227.19;5070641;28;20481;-71
2023/01/30 03:35:17;;;;;;;14.75;7.90;;;;;;;-2.92;69.44;98227.56;5070979;28;20025;-70
2023/01/30 03:37:46;;;;;;;15.20;8.82;;;;;;;-2.92;69.28;98231.09;5071013;28;20020;-71
2023/01/30 03:40:13;;;;;;;14.45;8.15;;;;;;;-2.89;69.01;98232.50;5070893;28;20466;-71
2023/01/30 03:42:39;;;;;;;17.02;8.88;;;;;;;-2.89;69.09;98216.41;5070589;28;20493;-71
2023/01/30 03:45:05;;;;;;;18.77;10.20;;;;;;;-2.88;68.87;98212.69;5069673;28;20021;-71
2023/01/30 03:47:30;;;;;;;16.83;9.35;;;;;;;-2.87;69.10;98211.63;5069769;28;20735;-71
2023/01/30 03:49:55;;;;;;;15.50;8.32;;;;;;;-2.85;68.64;98201.53;5070157;28;20091;-71
2023/01/30 03:52:21;;;;;;;18.60;9.02;;;;;;;-2.84;68.70;98201.28;5070412;28;20024;-71
2023/01/30 03:54:46;;;;;;;15.20;8.48;;;;;;;-2.83;68.61;98204.81;5069675;28;20379;-71
2023/01/30 03:57:11;;;;;;;14.60;8.45;;;;;;;-2.80;68.69;98190.97;5070042;28;20145;-71
2023/01/30 03:59:37;;;;;;;15.98;8.35;;;;;;;-2.80;68.78;98190.13;5070365;28;20118;-71
2023/01/30 04:02:03;;;;;;;15.30;8.38;;;;;;;-2.76;68.56;98189.50;5070794;28;20040;-70
2023/01/30 04:04:28;;;;;;;14.85;9.13;;;;;;;-2.76;68.54;98176.06;5051950;28;20106;-71
2023/01/30 04:06:53;;;;;;;19.65;10.05;;;;;;;-2.73;68.66;98161.38;5070245;28;20081;-71
2023/01/30 04:09:19;;;;;;;15.95;8.93;;;;;;;-2.74;68.52;98159.72;5070188;28;20049;-70
2023/01/30 04:11:44;;;;;;;16.13;9.25;;;;;;;-2.74;68.39;98168.63;5070210;28;20025;-71
2023/01/30 04:14:09;;;;;;;16.20;8.90;;;;;;;-2.74;68.77;98160.56;5070338;28;20056;-71
2023/01/30 04:16:35;;;;;;;15.55;9.38;;;;;;;-2.72;68.73;98160.34;5069941;28;20043;-71
2023/01/30 04:19:00;;;;;;;17.02;9.35;;;;;;;-2.72;68.33;98149.59;5070501;28;20051;-70
2023/01/30 04:21:26;;;;;;;16.60;8.82;;;;;;;-2.71;68.13;98145.88;5070518;28;20500;-70
2023/01/30 04:23:51;;;;;;;18.42;9.48;;;;;;;-2.72;68.40;98138.88;5070345;28;20443;-71
2023/01/30 04:26:17;;;;;;;14.88;8.60;;;;;;;-2.72;68.26;98142.38;5070363;28;20074;-70
2023/01/30 04:28:43;;;;;;;15.77;9.32;;;;;;;-2.73;68.20;98143.44;5070132;28;20442;-71
2023/01/30 04:31:08;;;;;;;17.30;9.18;;;;;;;-2.71;68.40;98129.78;5069878;28;20043;-70
2023/01/30 04:33:34;;;;;;;19.05;9.23;;;;;;;-2.72;68.21;98125.44;5070028;28;20016;-70
2023/01/30 04:36:02;;;;;;;18.27;8.60;;;;;;;-2.70;68.50;98131.41;5052001;28;20367;-70
2023/01/30 04:38:28;;;;;;;19.02;9.77;;;;;;;-2.68;68.10;98131.22;5070324;28;20434;-70
2023/01/30 04:40:55;;;;;;;19.60;9.45;;;;;;;-2.70;67.95;98118.00;5070126;28;20101;-71
2023/01/30 04:43:22;;;;;;;19.27;8.90;;;;;;;-2.69;68.17;98125.00;5069887;28;20111;-70
2023/01/30 04:45:49;;;;;;;19.42;9.80;;;;;;;-2.66;67.99;98126.44;5069712;28;20063;-70
2023/01/30 04:48:15;;;;;;;17.63;9.75;;;;;;;-2.65;68.18;98122.72;5069859;28;20035;-70
2023/01/30 04:50:42;;;;;;;16.60;10.20;;;;;;;-2.65;68.21;98112.00;5069813;28;20086;-70
2023/01/30 04:53:08;;;;;;;17.92;10.10;;;;;;;-2.66;68.18;98111.16;5069836;28;20032;-70
2023/01/30 04:55:33;;;;;;;17.95;9.95;;;;;;;-2.64;67.87;98101.00;5069995;28;20027;-71
2023/01/30 04:57:59;;;;;;;19.35;9.75;;;;;;;-2.63;68.08;98102.66;5069665;28;20024;-71
2023/01/30 05:00:24;;;;;;;17.55;10.50;;;;;;;-2.64;67.68;98101.00;5071655;28;20490;-71
2023/01/30 05:02:50;;;;;;;17.75;9.98;;;;;;;-2.64;67.76;98084.91;5073038;28;20040;-71
2023/01/30 05:05:15;;;;;;;18.60;10.38;;;;;;;-2.61;67.52;98080.94;5073322;28;20032;-70
2023/01/30 05:07:41;;;;;;;17.55;9.88;;;;;;;-2.62;67.50;98071.25;5073347;28;20024;-71
2023/01/30 05:10:07;;;;;;;18.90;10.55;;;;;;;-2.65;67.86;98077.09;5073343;28;20127;-70
2023/01/30 05:12:33;;;;;;;17.90;10.13;;;;;;;-2.64;67.62;98081.38;5073326;28;20020;-70
2023/01/30 05:14:58;;;;;;;19.60;9.85;;;;;;;-2.62;67.66;98098.09;5073353;28;20431;-70
2023/01/30 05:17:23;;;;;;;19.15;9.70;;;;;;;-2.65;67.60;98077.09;5072943;28;20112;-71
2023/01/30 05:19:49;;;;;;;19.60;11.02;;;;;;;-2.65;67.35;98059.09;5072977;28;20036;-70
2023/01/30 05:22:14;;;;;;;17.40;10.85;;;;;;;-2.66;67.54;98059.34;5073208;28;20025;-70
2023/01/30 05:24:39;;;;;;;18.73;11.15;;;;;;;-2.68;67.52;98072.16;5073024;28;20059;-71
2023/01/30 05:27:05;;;;;;;20.60;10.57;;;;;;;-2.70;67.19;98059.78;5073174;28;20078;-70
2023/01/30 05:29:30;;;;;;;20.55;10.77;;;;;;;-2.68;67.33;98048.00;5072734;28;20498;-70
2023/01/30 05:31:55;;;;;;;22.00;11.10;;;;;;;-2.65;67.36;98048.38;5055023;28;20135;-71
2023/01/30 05:34:21;;;;;;;19.27;10.60;;;;;;;-2.62;67.21;98065.88;5055028;28;20021;-71
2023/01/30 05:36:46;;;;;;;20.30;10.77;;;;;;;-2.61;67.45;98081.78;5072910;28;20024;-70
2023/01/30 05:39:12;;;;;;;20.73;11.23;;;;;;;-2.58;67.24;98077.81;5072879;28;20359;-70
2023/01/30 05:41:38;;;;;;;17.98;9.85;;;;;;;-2.56;67.37;98067.69;5073097;28;20021;-71
2023/01/30 05:44:03;;;;;;;21.35;10.98;;;;;;;-2.57;67.14;98047.25;5072928;28;20024;-71
2023/01/30 05:46:29;;;;;;;22.23;11.43;;;;;;;-2.55;67.31;98037.09;5053367;28;20028;-71
2023/01/30 05:48:54;;;;;;;21.48;11.02;;;;;;;-2.58;66.99;98033.03;5072304;28;20050;-71
2023/01/30 05:51:23;;;;;;;23.88;12.95;;;;;;;-2.55;66.88;98015.63;5072832;28;20094;-70
2023/01/30 05:53:49;;;;;;;19.10;10.95;;;;;;;-2.56;66.78;97998.72;5054915;28;20119;-71
2023/01/30 05:56:15;;;;;;;21.33;11.32;;;;;;;-2.57;66.98;97980.13;5072784;28;20162;-71
2023/01/30 05:58:40;;;;;;;22.92;11.52;;;;;;;-2.57;67.02;97980.97;5072480;28;20025;-70
2023/01/30 06:01:09;;;;;;;21.80;10.48;;;;;;;-2.57;67.17;97967.53;5072661;28;20056;-71
2023/01/30 06:03:35;;;;;;;22.42;11.98;;;;;;;-2.56;66.99;97977.22;5072046;28;20542;-70
2023/01/30 06:06:01;;;;;;;20.98;11.05;;;;;;;-2.57;66.86;97980.97;5072270;28;20107;-70
2023/01/30 06:08:27;;;;;;;22.42;11.77;;;;;;;-2.53;66.88;98000.13;5072596;28;20143;-71
2023/01/30 06:10:52;;;;;;;19.77;10.68;;;;;;;-2.51;66.70;98006.09;5071634;28;20120;-71
2023/01/30 06:13:19;;;;;;;20.05;11.27;;;;;;;-2.50;66.80;98005.03;5072212;28;20121;-71
2023/01/30 06:15:44;;;;;;;18.17;10.50;;;;;;;-2.47;67.04;98006.47;5072453;28;20470;-71
2023/01/30 06:18:10;;;;;;;19.02;10.00;;;;;;;-2.41;66.77;97994.81;5071927;28;20036;-71
2023/01/30 06:20:38;;;;;;;17.88;10.68;;;;;;;-2.37;66.82;97985.28;5071996;28;20048;-70
2023/01/30 06:23:04;;;;;;;23.27;12.10;;;;;;;-2.36;66.77;97986.91;5071799;28;20063;-71
2023/01/30 06:25:29;;;;;;;19.52;11.25;;;;;;;-2.37;66.58;97987.16;5072029;28;20060;-71
2023/01/30 06:27:54;;;;;;;20.38;10.77;;;;;;;-2.41;66.45;97982.22;5070875;28;20082;-71
2023/01/30 06:30:20;;;;;;;20.77;11.38;;;;;;;-2.40;66.70;97985.72;5071607;28;20081;-70
2023/01/30 06:32:49;;;;;;;22.20;12.02;;;;;;;-2.41;66.51;97971.50;5072245;28;20032;-71
2023/01/30 06:35:14;;;;;;;21.25;12.45;;;;;;;-2.40;66.53;97975.81;5053244;28;20044;-71
2023/01/30 06:37:40;;;;;;;23.02;11.77;;;;;;;-2.38;66.38;97983.63;5071884;28;20067;-71
2023/01/30 06:40:05;;;;;;;20.98;10.63;;;;;;;-2.35;66.48;98001.19;5071780;28;20028;-71
2023/01/30 06:42:36;;;;;;;21.67;11.13;;;;;;;-2.35;66.23;97996.63;5071762;28;20086;-71
2023/01/30 06:45:02;;;;;;;24.33;12.80;;;;;;;-2.38;66.48;97983.63;5071140;28;20490;-71
2023/01/30 06:47:27;;;;;;;22.90;12.38;;;;;;;-2.36;66.56;97988.81;5071750;28;20078;-71
2023/01/30 06:49:52;;;;;;;25.83;12.35;;;;;;;-2.33;66.35;97980.28;5071125;28;20067;-71
2023/01/30 06:52:18;;;;;;;22.17;12.20;;;;;;;-2.35;66.09;97990.44;5071788;28;20074;-71
2023/01/30 06:54:43;;;;;;;24.50;12.38;;;;;;;-2.35;66.31;97964.38;5053016;28;20035;-71
2023/01/30 06:57:09;;;;;;;24.65;12.45;;;;;;;-2.33;66.45;97969.56;5052777;28;20114;-71
2023/01/30 06:59:34;;;;;;;24.20;12.95;;;;;;;-2.33;66.20;97975.72;5071422;28;20086;-71
2023/01/30 07:01:59;;;;;;;25.88;13.57;;;;;;;-2.36;66.31;97970.81;5053410;28;20367;-71
2023/01/30 07:04:25;;;;;;;32.10;17.20;;;;;;;-2.37;66.38;97957.63;5070530;28;20032;-70
2023/01/30 07:06:50;;;;;;;29.80;16.02;;;;;;;-2.37;66.21;97955.72;5071287;28;20463;-71
2023/01/30 07:09:15;;;;;;;24.80;14.23;;;;;;;-2.35;66.06;97966.28;5051917;28;20759;-70
2023/01/30 07:11:41;;;;;;;28.23;15.85;;;;;;;-2.37;66.19;97955.72;5071743;28;20055;-71
2023/01/30 07:14:07;;;;;;;23.42;12.40;;;;;;;-2.36;66.25;97954.69;5048856;28;20056;-71
2023/01/30 07:16:33;;;;;;;22.65;12.52;;;;;;;-2.35;66.06;97937.53;5063454;28;20039;-76
2023/01/30 07:18:58;;;;;;;25.00;12.27;;;;;;;-2.34;66.08;97941.06;5067172;28;20029;-75
2023/01/30 07:21:26;;;;;;;25.27;13.68;;;;;;;-2.37;66.14;97931.56;5070615;28;20024;-72
2023/01/30 07:23:52;;;;;;;23.52;12.85;;;;;;;-2.36;66.07;97935.09;5048042;28;20428;-72
2023/01/30 07:26:18;;;;;;;21.67;11.82;;;;;;;-2.35;65.85;97934.84;5066871;28;20123;-72
2023/01/30 07:28:43;;;;;;;23.25;12.63;;;;;;;-2.32;66.29;97933.59;5063695;28;20032;-72
2023/01/30 07:31:09;;;;;;;23.10;12.30;;;;;;;-2.31;65.93;97935.22;5066805;28;20055;-73
2023/01/30 07:33:34;;;;;;;23.25;11.73;;;;;;;-2.33;66.03;97931.94;5067186;28;20101;-73
2023/01/30 07:36:01;;;;;;;23.20;12.57;;;;;;;-2.31;65.78;97946.78;5068253;28;20056;-74
2023/01/30 07:38:27;;;;;;;24.67;12.30;;;;;;;-2.30;66.07;97945.72;5066231;28;20395;-74
2023/01/30 07:40:52;;;;;;;21.85;11.90;;;;;;;-2.29;65.91;97933.13;5070668;28;20039;-73
2023/01/30 07:43:18;;;;;;;25.63;13.43;;;;;;;-2.29;65.97;97917.81;5050859;28;20079;-74
2023/01/30 07:45:46;;;;;;;25.63;13.25;;;;;;;-2.25;65.86;97932.44;5067024;28;20145;-75
2023/01/30 07:48:14;;;;;;;25.92;13.35;;;;;;;-2.21;65.88;97926.63;5067021;28;20029;-75
2023/01/30 07:50:40;;;;;;;23.38;12.80;;;;;;;-2.19;66.24;97932.59;5067201;28;20055;-75
2023/01/30 07:53:09;;;;;;;24.45;13.85;;;;;;;-2.16;65.85;97940.22;5052356;28;20032;-73
2023/01/30 07:55:34;;;;;;;24.88;13.07;;;;;;;-2.15;66.09;97941.84;5067153;28;20025;-73
2023/01/30 07:58:00;;;;;;;27.02;13.60;;;;;;;-2.14;66.07;97932.75;5067796;28;20411;-74
2023/01/30 08:00:26;;;;;;;22.40;11.90;;;;;;;-2.14;65.81;97943.50;5064576;28;20024;-74
2023/01/30 08:02:52;;;;;;;22.23;11.40;;;;;;;-2.15;65.69;97934.59;5068731;28;20028;-75
2023/01/30 08:05:18;;;;;;;23.30;12.30;;;;;;;-2.16;65.70;97932.94;5065646;28;20029;-75
2023/01/30 08:07:43;;;;;;;23.85;11.98;;;;;;;-2.15;66.03;97917.66;5069652;28;20070;-75
2023/01/30 08:10:09;;;;;;;22.70;11.82;;;;;;;-2.15;65.77;97910.41;5068228;28;20048;-73
2023/01/30 08:12:35;;;;;;;23.25;12.10;;;;;;;-2.16;65.91;97889.97;5067875;28;20032;-75
2023/01/30 08:15:00;;;;;;;23.48;11.65;;;;;;;-2.14;66.12;97895.94;5067649;28;20051;-73
2023/01/30 08:17:25;;;;;;;23.85;12.57;;;;;;;-2.04;65.90;97884.66;5068368;28;20067;-75
2023/01/30 08:19:51;;;;;;;23.92;11.40;;;;;;;-1.92;65.76;97875.78;5069655;28;20459;-74
2023/01/30 08:22:16;;;;;;;22.08;11.82;;;;;;;-1.83;65.87;97867.16;5067812;28;20033;-73
2023/01/30 08:24:42;;;;;;;21.63;10.98;;;;;;;-1.72;65.57;97867.41;5048827;28;20028;-73
2023/01/30 08:27:07;;;;;;;21.50;11.05;;;;;;;-1.62;65.58;97864.16;5067690;28;20456;-76
2023/01/30 08:29:33;;;;;;;24.10;12.43;;;;;;;-1.55;65.12;97867.56;5065280;28;20116;-75
2023/01/30 08:31:58;;;;;;;20.75;10.75;;;;;;;-1.51;65.31;97858.81;5066366;28;20078;-73
2023/01/30 08:34:24;;;;;;;22.02;11.10;;;;;;;-1.46;65.21;97870.75;5069154;28;20031;-75
2023/01/30 08:36:50;;;;;;;23.60;12.50;;;;;;;-1.42;65.62;97858.44;5069012;28;20059;-74
2023/01/30 08:39:16;;;;;;;23.00;11.80;;;;;;;-1.34;65.18;97866.16;5074504;28;20486;-74
2023/01/30 08:41:42;;;;;;;20.92;11.80;;;;;;;-1.29;65.18;97858.22;5071436;28;20060;-74
2023/01/30 08:44:10;;;;;;;22.15;11.50;;;;;;;-1.21;64.73;97865.13;5054410;28;20115;-75
2023/01/30 08:46:37;;;;;;;23.25;12.00;;;;;;;-1.15;65.15;97853.41;5071770;28;20367;-75
2023/01/30 08:49:03;;;;;;;19.92;11.55;;;;;;;-1.06;64.97;97859.28;5071859;28;20653;-74
2023/01/30 08:51:28;;;;;;;22.23;11.93;;;;;;;-1.01;64.68;97866.66;5073022;28;20112;-74
2023/01/30 08:53:54;;;;;;;19.23;10.70;;;;;;;-0.99;63.70;97857.25;5073400;28;20694;-75
2023/01/30 08:56:19;;;;;;;21.83;11.32;;;;;;;-1.03;63.99;97847.22;5055342;28;20025;-74
2023/01/30 08:58:45;;;;;;;19.20;10.68;;;;;;;-1.06;63.51;97843.13;5072914;28;20021;-74
2023/01/30 09:01:11;;;;;;;18.33;9.95;;;;;;;-1.08;63.45;97839.88;5072896;28;20032;-75
2023/01/30 09:03:37;;;;;;;23.02;10.50;;;;;;;-1.09;63.96;97835.53;5072600;28;20028;-74
2023/01/30 09:06:03;;;;;;;21.13;11.65;;;;;;;-1.11;63.56;97837.63;5072931;28;20036;-74
2023/01/30 09:08:29;;;;;;;20.13;11.00;;;;;;;-1.09;64.46;97830.94;5069318;28;20059;-72
2023/01/30 09:11:03;;;;;;;22.80;12.55;;;;;;;-1.03;64.01;97825.69;5069948;28;20092;-73
2023/01/30 09:13:29;;;;;;;22.20;12.57;;;;;;;-1.03;63.62;97831.91;5072445;28;20112;-73
2023/01/30 09:15:55;;;;;;;22.27;12.23;;;;;;;-1.02;63.95;97827.31;5071106;28;20029;-75
2023/01/30 09:18:23;;;;;;;20.02;10.88;;;;;;;-1.03;63.99;97820.31;5069200;28;20051;-77
2023/01/30 09:20:48;;;;;;;20.65;10.85;;;;;;;-1.01;63.72;97819.00;5066561;28;20039;-74
2023/01/30 09:23:14;;;;;;;23.38;11.43;;;;;;;-0.99;63.75;97808.00;5066164;28;20033;-72
2023/01/30 09:25:39;;;;;;;17.55;10.18;;;;;;;-0.98;63.65;97809.66;5069537;28;20555;-73
2023/01/30 09:28:05;;;;;;;21.52;10.82;;;;;;;-1.00;63.67;97812.56;5053233;28;20513;-73
2023/01/30 09:30:30;;;;;;;21.92;11.10;;;;;;;-0.98;63.81;97806.97;5070704;28;20032;-72
2023/01/30 09:32:55;;;;;;;21.52;10.82;;;;;;;-0.98;63.63;97815.03;5068735;28;20028;-72
2023/01/30 09:35:21;;;;;;;19.58;10.88;;;;;;;-0.98;63.99;97796.19;5069578;28;20028;-73
2023/01/30 09:37:51;;;;;;;21.33;10.80;;;;;;;-0.96;64.37;97797.56;5069729;28;20489;-74
2023/01/30 09:40:21;;;;;;;24.25;11.90;;;;;;;-0.92;64.41;97787.16;5070341;28;20135;-74
2023/01/30 09:43:14;;;;;;;21.55;11.80;;;;;;;-0.92;64.42;97787.97;5069888;28;20127;-74
2023/01/30 09:45:47;;;;;;;25.77;12.07;;;;;;;-0.91;64.71;97781.53;5068900;28;20017;-73
2023/01/30 09:48:28;;;;;;;21.45;11.73;;;;;;;-0.97;64.96;97766.31;5069802;28;20020;-73
2023/01/30 09:50:57;;;;;;;20.45;11.43;;;;;;;-1.02;65.44;97763.56;5070001;28;20070;-73
2023/01/30 09:53:35;;;;;;;22.20;11.75;;;;;;;-1.11;65.68;97746.94;5069819;28;20055;-72
2023/01/30 09:56:01;;;;;;;22.88;12.07;;;;;;;-1.14;65.94;97727.78;5069924;28;20363;-72
2023/01/30 09:58:41;;;;;;;22.75;11.65;;;;;;;-1.18;66.59;97748.13;5070000;28;20040;-72
2023/01/30 10:01:12;;;;;;;;;;;;;;;-1.20;67.02;97749.19;5070183;28;20039;-72
2023/01/30 10:03:54;;;;;;;23.25;12.48;;;;;;;-1.23;67.25;97756.94;5069444;28;19916;-74
2023/01/30 10:06:19;;;;;;;25.70;12.60;;;;;;;-1.28;67.93;97746.88;5066925;28;20024;-72
2023/01/30 10:09:14;;;;;;;26.30;12.60;;;;;;;-1.33;68.18;97740.56;5067821;28;20024;-76
2023/01/30 10:11:46;;;;;;;25.63;12.60;;;;;;;-1.38;68.08;97738.56;5067692;28;20036;-75
2023/01/30 10:14:14;;;;;;;26.02;12.70;;;;;;;-1.37;69.00;97737.50;5050062;28;20036;-75
2023/01/30 10:16:46;;;;;;;23.10;12.60;;;;;;;-1.38;68.71;97743.94;5067288;28;20135;-74
2023/01/30 10:19:39;;;;;;;23.58;12.35;;;;;;;-1.38;69.11;97738.56;5068007;28;20031;-73
2023/01/30 10:22:16;;;;;;;26.58;13.77;;;;;;;-1.39;69.11;97729.69;5067130;28;20434;-74
2023/01/30 10:24:55;;;;;;;25.92;13.27;;;;;;;-1.38;69.08;97719.75;5068639;28;20435;-72
2023/01/30 10:27:24;;;;;;;26.50;13.57;;;;;;;-1.33;69.35;97702.91;5067201;28;20032;-73
2023/01/30 10:29:55;;;;;;;30.35;13.82;;;;;;;-1.31;69.01;97715.06;5067449;28;20116;-74
2023/01/30 10:32:30;;;;;;;27.05;13.32;;;;;;;-1.31;69.25;97700.78;5065507;28;20087;-75
2023/01/30 10:35:05;;;;;;;31.85;15.02;;;;;;;-1.33;68.98;97692.16;5067788;28;20040;-73
2023/01/30 10:37:56;;;;;;;24.60;13.43;;;;;;;-1.30;69.13;97695.16;5068104;28;20448;-74
2023/01/30 10:40:33;;;;;;;25.40;13.20;;;;;;;-1.26;69.22;97688.25;5069302;28;20032;-74
2023/01/30 10:43:17;;;;;;;29.05;13.65;;;;;;;-1.23;69.05;97689.66;5065299;28;20016;-72
2023/01/30 10:46:09;;;;;;;26.13;13.35;;;;;;;-1.18;68.82;97705.09;5068705;28;20028;-73
2023/01/30 10:49:12;;;;;;;22.77;12.20;;;;;;;-1.13;68.72;97708.69;5069021;28;20036;-74
2023/01/30 10:51:43;;;;;;;23.77;12.55;;;;;;;-1.10;68.21;97691.25;4986889;28;20040;-72
2023/01/30 10:54:20;;;;;;;24.38;12.40;;;;;;;-1.06;68.79;97674.38;5053831;28;20043;-75
2023/01/30 10:56:45;;;;;;;24.02;13.07;;;;;;;-1.01;68.49;97673.66;5067315;28;20032;-72
2023/01/30 10:59:46;;;;;;;24.17;11.68;;;;;;;-0.99;68.80;97676.91;5069061;28;20490;-73
2023/01/30 11:02:19;;;;;;;23.02;11.77;;;;;;;-0.93;68.67;97654.44;5068126;28;20162;-75
2023/01/30 11:04:58;;;;;;;23.95;12.38;;;;;;;-0.88;68.39;97655.59;5066280;28;20036;-73
2023/01/30 11:07:24;;;;;;;19.85;11.80;;;;;;;-0.85;68.70;97645.16;5068537;28;20039;-73
2023/01/30 11:09:50;;;;;;;21.00;11.50;;;;;;;-0.78;69.05;97653.06;5067693;28;20482;-73
2023/01/30 11:12:15;;;;;;;27.10;13.52;;;;;;;-0.73;68.96;97650.47;5066432;28;20039;-74
2023/01/30 11:14:57;;;;;;;24.38;13.55;;;;;;;-0.71;68.93;97653.75;5066187;28;20056;-73
2023/01/30 11:17:40;;;;;;;25.25;13.40;;;;;;;-0.69;68.54;97646.25;5069390;28;20036;-73
2023/01/30 11:20:23;;;;;;;24.58;13.15;;;;;;;-0.64;69.08;97643.66;5081106;28;20111;-73
2023/01/30 11:23:04;;;;;;;22.92;13.10;;;;;;;-0.56;68.96;97631.63;5067478;28;20107;-72
2023/01/30 11:25:29;;;;;;;23.90;12.88;;;;;;;-0.51;68.94;97630.91;5063320;28;20509;-71
2023/01/30 11:28:05;;;;;;;25.15;13.02;;;;;;;-0.48;68.92;97611.56;5067371;28;20029;-73
2023/01/30 11:30:34;;;;;;;22.90;11.27;;;;;;;-0.47;68.78;97607.78;5066607;28;20046;-73
2023/01/30 11:33:15;;;;;;;24.27;12.80;;;;;;;-0.47;68.91;97605.09;5068108;28;20028;-71